Time;durP1;ratioP1;P1;durP2;ratioP2;P2;SDS_P1;SDS_P2;PMS_P1;PMS_P2;Temp;Humidity;BMP_temperature;BMP_pressure;BME280_temperature;BME280_humidity;BME280_pressure;Samples;Min_cycle;Max_cycle;Signal;HPM_P1;HPM_P2
2021/05/02 00:01:34;;;;;;;7.95;5.20;;;;;;;14.80;100.00;96544.28;5053770;28;20033;-81
2021/05/02 00:04:05;;;;;;;17.65;5.20;;;;;;;14.96;100.00;96541.50;5053401;28;20025;-81
2021/05/02 00:06:32;;;;;;;11.60;4.13;;;;;;;15.11;100.00;96542.63;5053430;28;20033;-82
2021/05/02 00:08:57;;;;;;;13.50;4.45;;;;;;;15.14;100.00;96536.41;5053426;28;20036;-84
2021/05/02 00:11:23;;;;;;;10.80;3.78;;;;;;;15.21;100.00;96555.84;5053437;28;20025;-81
2021/05/02 00:13:49;;;;;;;12.32;3.85;;;;;;;15.21;100.00;96542.06;5053357;28;20420;-82
2021/05/02 00:16:15;;;;;;;14.45;3.38;;;;;;;15.19;100.00;96558.16;5053236;28;20108;-84
2021/05/02 00:18:41;;;;;;;10.55;2.80;;;;;;;15.21;100.00;96564.09;5053155;28;20025;-81
2021/05/02 00:21:09;;;;;;;13.13;3.13;;;;;;;15.22;100.00;96558.25;5053362;28;20032;-80
2021/05/02 00:23:37;;;;;;;6.22;3.08;;;;;;;15.32;100.00;96565.94;5053131;28;20024;-81
2021/05/02 00:26:04;;;;;;;10.02;3.22;;;;;;;15.32;100.00;96567.88;5053637;28;20060;-83
2021/05/02 00:28:31;;;;;;;13.48;3.67;;;;;;;15.31;100.00;96558.84;5053323;28;20032;-82
2021/05/02 00:30:58;;;;;;;9.43;2.70;;;;;;;15.29;100.00;96565.84;5053199;28;20033;-84
2021/05/02 00:33:24;;;;;;;10.80;2.58;;;;;;;15.26;100.00;96547.28;5053490;28;20056;-83
2021/05/02 00:35:50;;;;;;;8.48;2.85;;;;;;;15.31;99.90;96552.53;5053455;28;20069;-85
2021/05/02 00:38:16;;;;;;;10.05;2.95;;;;;;;15.16;100.00;96548.66;5053547;28;20017;-82
2021/05/02 00:40:42;;;;;;;6.18;2.35;;;;;;;15.18;100.00;96537.28;5069072;28;20362;-84
2021/05/02 00:43:11;;;;;;;7.78;2.30;;;;;;;15.09;100.00;96550.47;5054133;28;20032;-84
2021/05/02 00:45:58;;;;;;;8.35;2.25;;;;;;;15.12;100.00;96561.56;5069197;28;20029;-83
2021/05/02 00:48:26;;;;;;;;;;;;;;;15.05;100.00;96555.06;5053555;28;20082;-81
2021/05/02 00:51:01;;;;;;;11.23;1.92;;;;;;;14.98;100.00;96558.47;5053419;28;19913;-80
2021/05/02 00:53:52;;;;;;;4.30;1.67;;;;;;;14.93;99.25;96570.56;5051735;28;20397;-81
2021/05/02 00:56:22;;;;;;;7.15;1.98;;;;;;;14.90;99.57;96565.78;5053762;28;20033;-82
2021/05/02 00:59:04;;;;;;;5.10;1.48;;;;;;;14.75;100.00;96572.09;5058711;28;20045;-82
2021/05/02 01:01:38;;;;;;;4.53;1.77;;;;;;;14.59;100.00;96582.31;5055582;28;20043;-82
2021/05/02 01:04:05;;;;;;;6.10;1.52;;;;;;;14.48;100.00;96573.78;5051874;28;20028;-84
2021/05/02 01:06:32;;;;;;;3.70;1.40;;;;;;;14.38;100.00;96577.03;5053173;28;20052;-83
2021/05/02 01:09:01;;;;;;;2.33;1.77;;;;;;;14.38;100.00;96587.25;5052897;28;20059;-85
2021/05/02 01:11:27;;;;;;;4.53;1.42;;;;;;;14.30;100.00;96580.75;5053092;28;20029;-82
2021/05/02 01:13:59;;;;;;;6.03;1.95;;;;;;;14.37;100.00;96591.97;5052880;28;20036;-85
2021/05/02 01:16:27;;;;;;;6.57;1.95;;;;;;;14.34;100.00;96589.13;5051719;28;20025;-82
2021/05/02 01:18:54;;;;;;;1.70;1.25;;;;;;;14.29;100.00;96594.84;5052445;28;20043;-83
2021/05/02 01:21:28;;;;;;;2.20;1.08;;;;;;;14.30;100.00;96586.25;5051302;28;20059;-82
2021/05/02 01:23:53;;;;;;;3.42;1.17;;;;;;;14.37;100.00;96591.16;5052680;28;20029;-83
2021/05/02 01:26:19;;;;;;;2.60;1.15;;;;;;;14.38;100.00;96587.25;5068172;28;20035;-84
2021/05/02 01:28:45;;;;;;;6.53;1.67;;;;;;;14.41;100.00;96589.28;5067713;28;20405;-85
2021/05/02 01:31:11;;;;;;;6.07;1.50;;;;;;;14.38;100.00;96587.25;5068010;28;20115;-85
2021/05/02 01:33:37;;;;;;;6.88;1.50;;;;;;;14.22;100.00;96576.19;5052670;28;20048;-82
2021/05/02 01:36:06;;;;;;;3.35;1.20;;;;;;;14.35;100.00;96608.00;5052542;28;20465;-88
2021/05/02 01:38:33;;;;;;;3.20;1.00;;;;;;;14.37;100.00;96607.66;5052444;28;20040;-87
2021/05/02 01:40:59;;;;;;;4.97;1.45;;;;;;;14.37;100.00;96624.97;5052733;28;20028;-85
2021/05/02 01:43:24;;;;;;;4.60;1.55;;;;;;;14.34;100.00;96613.88;5052055;28;20465;-84
2021/05/02 01:45:50;;;;;;;2.40;1.75;;;;;;;14.34;100.00;96622.13;5052554;28;20484;-84
2021/05/02 01:48:17;;;;;;;3.47;1.38;;;;;;;14.39;100.00;96619.09;5068890;28;20029;-84
2021/05/02 01:51:08;;;;;;;6.75;2.55;;;;;;;14.26;100.00;96612.03;5052372;28;20029;-82
2021/05/02 01:53:37;;;;;;;3.78;1.17;;;;;;;14.23;100.00;96634.75;5050526;28;20041;-83
2021/05/02 01:56:03;;;;;;;8.65;1.48;;;;;;;14.30;100.00;96645.94;5052661;28;20029;-81
2021/05/02 01:58:31;;;;;;;5.70;1.75;;;;;;;14.28;100.00;96651.78;5051878;28;20059;-86
2021/05/02 02:01:01;;;;;;;2.05;1.35;;;;;;;14.18;100.00;96638.56;5052263;28;20035;-82
2021/05/02 02:03:26;;;;;;;1.55;1.42;;;;;;;14.17;100.00;96647.97;5052198;28;20028;-85
2021/05/02 02:05:52;;;;;;;3.92;1.35;;;;;;;14.09;100.00;96648.13;5050822;28;20059;-85
2021/05/02 02:08:19;;;;;;;4.95;1.33;;;;;;;13.97;100.00;96634.41;5051662;28;20385;-83
2021/05/02 02:10:47;;;;;;;2.47;1.42;;;;;;;14.02;100.00;96645.97;5051705;28;20104;-86
2021/05/02 02:13:15;;;;;;;8.52;2.33;;;;;;;13.98;100.00;96655.25;5050955;28;20037;-85
2021/05/02 02:15:41;;;;;;;3.35;1.40;;;;;;;13.97;100.00;96657.19;5051453;28;20021;-83
2021/05/02 02:18:09;;;;;;;1.90;1.20;;;;;;;14.01;100.00;96658.09;5051397;28;20116;-81
2021/05/02 02:20:43;;;;;;;3.92;1.70;;;;;;;14.00;100.00;96664.78;5051245;28;20100;-85
2021/05/02 02:23:17;;;;;;;6.70;2.13;;;;;;;13.94;100.00;96666.13;5051518;28;20037;-83
2021/05/02 02:25:44;;;;;;;2.33;1.85;;;;;;;13.94;100.00;96677.94;5050684;28;20052;-84
2021/05/02 02:28:13;;;;;;;6.22;1.80;;;;;;;13.86;100.00;96681.63;5050513;28;20112;-86
2021/05/02 02:30:45;;;;;;;3.40;1.13;;;;;;;13.93;100.00;96676.34;5051446;28;20025;-86
2021/05/02 02:33:10;;;;;;;4.90;1.70;;;;;;;13.89;100.00;96667.19;5050023;28;20032;-83
2021/05/02 02:35:45;;;;;;;6.28;2.00;;;;;;;13.99;100.00;96685.16;5049833;28;20029;-81
2021/05/02 02:38:14;;;;;;;2.60;1.20;;;;;;;13.98;100.00;96680.00;5049783;28;20028;-81
2021/05/02 02:40:40;;;;;;;5.05;1.45;;;;;;;13.99;100.00;96679.66;5050077;28;20033;-86
2021/05/02 02:43:06;;;;;;;2.15;1.50;;;;;;;14.02;100.00;96664.41;5051095;28;20052;-82
2021/05/02 02:45:38;;;;;;;4.55;1.65;;;;;;;14.00;100.00;96658.47;5066485;28;20485;-83
2021/05/02 02:48:05;;;;;;;2.45;1.67;;;;;;;14.09;100.00;96690.16;5050934;28;20025;-84
2021/05/02 02:50:32;;;;;;;4.45;2.40;;;;;;;14.05;100.00;96688.44;5050643;28;20083;-81
2021/05/02 02:53:04;;;;;;;1.05;0.95;;;;;;;14.03;100.00;96685.25;5051184;28;20060;-82
2021/05/02 02:55:31;;;;;;;3.58;1.42;;;;;;;13.99;100.00;96701.66;5052930;28;20045;-81
2021/05/02 02:58:05;;;;;;;2.58;1.20;;;;;;;14.00;100.00;96692.25;5054511;28;20041;-84
2021/05/02 03:00:35;;;;;;;3.60;1.67;;;;;;;13.99;100.00;96698.09;5054673;28;20021;-87
2021/05/02 03:03:13;;;;;;;2.17;1.23;;;;;;;13.98;100.00;96691.00;5054784;28;20032;-83
2021/05/02 03:05:40;;;;;;;1.30;1.20;;;;;;;14.05;100.00;96707.69;5056064;28;20105;-84
2021/05/02 03:08:08;;;;;;;2.92;1.50;;;;;;;14.05;100.00;96704.94;5054498;28;20029;-83
2021/05/02 03:10:35;;;;;;;2.88;1.30;;;;;;;14.03;100.00;96699.00;5055705;28;20443;-82
2021/05/02 03:13:01;;;;;;;3.28;1.67;;;;;;;14.12;100.00;96710.66;5071478;28;20036;-83
2021/05/02 03:15:28;;;;;;;2.63;1.23;;;;;;;14.08;100.00;96712.50;5055533;28;20029;-87
2021/05/02 03:18:02;;;;;;;3.03;1.25;;;;;;;14.10;100.00;96715.69;5056163;28;20037;-87
2021/05/02 03:20:33;;;;;;;3.15;1.63;;;;;;;14.03;100.00;96721.81;5055705;28;20017;-87
2021/05/02 03:23:05;;;;;;;2.03;1.20;;;;;;;14.10;100.00;96732.19;5056276;28;20500;-86
2021/05/02 03:25:34;;;;;;;3.78;1.60;;;;;;;14.07;100.00;96724.66;5057823;28;20521;-88
2021/05/02 03:28:03;;;;;;;3.15;1.23;;;;;;;14.06;100.00;96723.06;5055195;28;20036;-85
2021/05/02 03:30:29;;;;;;;1.30;1.20;;;;;;;14.20;98.27;96728.97;5055549;28;20087;-86
2021/05/02 03:32:57;;;;;;;1.63;1.23;;;;;;;14.14;100.00;96735.84;5056004;28;20032;-86
2021/05/02 03:35:31;;;;;;;1.88;1.30;;;;;;;14.12;100.00;96743.66;5055838;28;20155;-86
2021/05/02 03:38:22;;;;;;;3.50;1.33;;;;;;;14.04;100.00;96744.59;5055906;28;20025;-84
2021/05/02 03:40:49;;;;;;;1.17;0.85;;;;;;;14.05;98.25;96755.25;5054471;28;20477;-85
2021/05/02 03:43:14;;;;;;;2.20;1.40;;;;;;;14.05;98.88;96751.69;5055536;28;20024;-84
2021/05/02 03:45:40;;;;;;;1.77;1.25;;;;;;;14.08;96.92;96765.56;5055349;28;20070;-87
2021/05/02 03:48:06;;;;;;;3.03;1.55;;;;;;;14.11;97.07;96762.13;5055234;28;20033;-86
2021/05/02 03:50:31;;;;;;;5.55;1.70;;;;;;;14.13;97.21;96764.50;5055727;28;20048;-84
2021/05/02 03:52:57;;;;;;;1.23;1.13;;;;;;;14.09;98.64;96758.91;5053946;28;20431;-84
2021/05/02 03:55:22;;;;;;;2.03;1.58;;;;;;;14.04;99.95;96766.59;5055890;28;20473;-85
2021/05/02 03:57:49;;;;;;;2.40;1.20;;;;;;;13.96;100.00;96757.34;5055069;28;20025;-85
2021/05/02 04:00:18;;;;;;;2.05;1.38;;;;;;;13.97;100.00;96763.63;5054888;28;20396;-85
2021/05/02 04:02:43;;;;;;;1.50;1.23;;;;;;;14.00;100.00;96760.19;5054707;28;20074;-86
2021/05/02 04:05:09;;;;;;;3.60;2.33;;;;;;;14.09;100.00;96771.88;5054041;28;20033;-85
2021/05/02 04:07:35;;;;;;;3.17;1.30;;;;;;;14.05;100.00;96770.94;5054384;28;20021;-86
2021/05/02 04:10:00;;;;;;;1.95;1.20;;;;;;;14.00;100.00;96783.00;5053944;28;20035;-86
2021/05/02 04:12:26;;;;;;;1.90;1.77;;;;;;;13.98;100.00;96776.22;5055051;28;20064;-86
2021/05/02 04:14:51;;;;;;;4.57;1.27;;;;;;;13.92;100.00;96779.22;5054808;28;20036;-83
2021/05/02 04:17:17;;;;;;;2.05;1.23;;;;;;;13.87;100.00;96773.16;5055552;28;20366;-86
2021/05/02 04:19:45;;;;;;;1.48;1.38;;;;;;;13.99;100.00;96781.38;5055498;28;20025;-89
2021/05/02 04:22:12;;;;;;;1.65;1.05;;;;;;;13.98;100.00;96779.78;5055608;28;20409;-84
2021/05/02 04:24:38;;;;;;;1.92;1.23;;;;;;;13.87;100.00;96789.66;5054600;28;20500;-85
2021/05/02 04:27:04;;;;;;;2.10;1.02;;;;;;;13.89;100.00;96790.91;5054795;28;20021;-87
2021/05/02 04:29:32;;;;;;;4.43;1.05;;;;;;;13.86;100.00;96794.34;5054915;28;20025;-86
2021/05/02 04:31:58;;;;;;;1.38;1.25;;;;;;;13.84;100.00;96798.59;5055600;28;20381;-86
2021/05/02 04:34:24;;;;;;;0.68;0.68;;;;;;;13.87;100.00;96795.16;5053920;28;20128;-87
2021/05/02 04:36:51;;;;;;;1.20;0.90;;;;;;;13.91;100.00;96804.28;5055319;28;20570;-87
2021/05/02 04:39:18;;;;;;;2.92;1.38;;;;;;;14.00;100.00;96812.44;5059527;28;20119;-88
2021/05/02 04:41:44;;;;;;;1.90;1.38;;;;;;;13.94;100.00;96811.84;5056622;28;20496;-87
2021/05/02 04:44:10;;;;;;;1.63;0.88;;;;;;;13.98;100.00;96820.22;5054870;28;20489;-88
2021/05/02 04:46:37;;;;;;;1.02;0.90;;;;;;;14.06;100.00;96814.59;5054406;28;20063;-86
2021/05/02 04:49:03;;;;;;;1.55;1.00;;;;;;;14.02;100.00;96821.13;5054507;28;20025;-87
2021/05/02 04:51:29;;;;;;;16.70;10.25;;;;;;;14.13;100.00;96816.75;5055502;28;20031;-86
2021/05/02 04:53:54;;;;;;;18.17;9.95;;;;;;;14.09;100.00;96818.63;5053957;28;20028;-84
2021/05/02 04:56:20;;;;;;;2.47;1.70;;;;;;;14.10;100.00;96834.75;5054544;28;20112;-84
2021/05/02 04:58:45;;;;;;;1.00;0.88;;;;;;;14.07;100.00;96829.13;5052382;28;20147;-84
2021/05/02 05:01:13;;;;;;;8.55;6.95;;;;;;;14.11;100.00;96846.56;5053887;28;20021;-86
2021/05/02 05:03:39;;;;;;;3.40;1.05;;;;;;;13.96;100.00;96831.56;5053907;28;20031;-82
2021/05/02 05:06:04;;;;;;;36.03;22.48;;;;;;;14.00;100.00;96856.44;5053161;28;20024;-85
2021/05/02 05:08:30;;;;;;;4.32;3.90;;;;;;;14.02;100.00;96854.94;5055233;28;21155;-85
2021/05/02 05:10:55;;;;;;;0.60;0.60;;;;;;;14.00;100.00;96845.44;5067121;28;20013;-87
2021/05/02 05:13:21;;;;;;;1.23;0.82;;;;;;;13.98;100.00;96853.19;5053601;28;20032;-84
2021/05/02 05:15:46;;;;;;;1.80;1.15;;;;;;;14.09;100.00;96860.66;5033612;28;20056;-87
2021/05/02 05:18:12;;;;;;;0.70;0.60;;;;;;;14.12;100.00;96850.91;5047996;28;20021;-81
2021/05/02 05:20:37;;;;;;;0.75;0.50;;;;;;;14.23;99.73;96852.03;5048697;28;20052;-82
2021/05/02 05:23:03;;;;;;;3.80;0.68;;;;;;;14.21;99.03;96854.34;5033784;28;20041;-83
2021/05/02 05:25:28;;;;;;;0.73;0.50;;;;;;;14.15;99.79;96869.47;5048504;28;20037;-82
2021/05/02 05:27:54;;;;;;;0.60;0.60;;;;;;;14.26;100.00;96865.91;5032451;28;20026;-82
2021/05/02 05:30:19;;;;;;;0.45;0.45;;;;;;;14.37;100.00;96880.03;5047858;28;20109;-84
2021/05/02 05:32:45;;;;;;;1.02;0.73;;;;;;;14.23;97.99;96871.28;5032585;28;20079;-84
2021/05/02 05:35:11;;;;;;;2.10;0.93;;;;;;;14.24;98.52;96875.66;5031289;28;20044;-83
2021/05/02 05:37:38;;;;;;;2.47;0.65;;;;;;;14.19;99.34;96868.44;5033151;28;20029;-85
2021/05/02 05:40:06;;;;;;;3.47;0.77;;;;;;;14.18;98.97;96877.84;5048249;28;20508;-81
2021/05/02 05:42:31;;;;;;;0.63;0.55;;;;;;;14.16;98.86;96871.88;5030396;28;20640;-77
2021/05/02 05:44:56;;;;;;;2.58;0.70;;;;;;;14.35;97.69;96879.56;5031685;28;20124;-82
2021/05/02 05:47:22;;;;;;;1.90;0.57;;;;;;;14.39;96.61;96883.22;5032098;28;20052;-81
2021/05/02 05:49:47;;;;;;;0.80;0.80;;;;;;;14.57;96.75;96881.00;5039553;28;20500;-80
2021/05/02 05:52:13;;;;;;;0.77;0.77;;;;;;;14.66;97.40;96873.44;5035067;28;20116;-80
2021/05/02 05:54:41;;;;;;;0.77;0.60;;;;;;;14.62;95.47;96887.09;5032054;28;20171;-81
2021/05/02 05:57:07;;;;;;;0.90;0.90;;;;;;;14.52;96.42;96879.31;5031524;28;20033;-82
2021/05/02 05:59:32;;;;;;;0.57;0.57;;;;;;;14.86;94.14;96887.03;5046361;28;20049;-84
2021/05/02 06:01:58;;;;;;;0.68;0.68;;;;;;;14.80;95.03;96902.19;5046887;28;20116;-81
2021/05/02 06:04:24;;;;;;;0.85;0.63;;;;;;;14.98;95.39;96889.72;5031400;28;20111;-80
2021/05/02 06:06:50;;;;;;;1.45;0.77;;;;;;;15.25;94.44;96912.13;5046372;28;20033;-81
2021/05/02 06:09:15;;;;;;;1.40;0.43;;;;;;;15.44;93.34;96906.75;5031188;28;20189;-82
2021/05/02 06:11:41;;;;;;;4.78;0.38;;;;;;;15.40;93.17;96903.91;5030973;28;20091;-76
2021/05/02 06:14:08;;;;;;;3.50;1.45;;;;;;;15.34;93.36;96905.31;5038937;28;20130;-76
2021/05/02 06:16:34;;;;;;;0.77;0.73;;;;;;;15.48;92.89;96911.22;5050427;28;20013;-75
2021/05/02 06:18:59;;;;;;;11.45;7.65;;;;;;;15.39;92.16;96913.31;5050305;28;20029;-73
2021/05/02 06:21:26;;;;;;;1.63;1.10;;;;;;;15.28;92.89;96906.72;5050343;28;20466;-76
2021/05/02 06:23:52;;;;;;;13.05;10.05;;;;;;;15.20;92.54;96918.69;5050403;28;20064;-76
2021/05/02 06:26:19;;;;;;;10.45;6.47;;;;;;;15.13;94.06;96926.75;5050642;28;20029;-76
2021/05/02 06:28:49;;;;;;;9.45;7.43;;;;;;;15.10;95.61;96932.16;5049908;28;20052;-75
2021/05/02 06:31:15;;;;;;;1.52;1.25;;;;;;;15.09;96.10;96944.34;5050196;28;20025;-77
2021/05/02 06:33:41;;;;;;;0.45;0.45;;;;;;;14.84;95.94;96947.16;5049997;28;20025;-74
2021/05/02 06:36:06;;;;;;;0.70;0.60;;;;;;;14.93;95.57;96942.31;5050202;28;20051;-74
2021/05/02 06:38:32;;;;;;;1.70;0.80;;;;;;;15.07;95.46;96950.16;5049007;28;20025;-76
2021/05/02 06:40:58;;;;;;;1.17;0.90;;;;;;;15.16;94.42;96947.31;5048979;28;20096;-75
2021/05/02 06:43:23;;;;;;;1.90;0.82;;;;;;;15.20;94.60;96953.69;5048904;28;20029;-76
2021/05/02 06:45:49;;;;;;;4.25;1.00;;;;;;;15.01;95.66;96962.59;5046179;28;20021;-76
2021/05/02 06:48:15;;;;;;;1.90;1.02;;;;;;;15.00;93.99;96977.53;5048518;28;20158;-75
2021/05/02 06:50:40;;;;;;;0.80;0.80;;;;;;;14.59;95.35;96984.13;5047345;28;20508;-76
2021/05/02 06:53:06;;;;;;;0.93;0.70;;;;;;;14.58;97.82;96981.69;5048454;28;20033;-77
2021/05/02 06:55:31;;;;;;;0.77;0.70;;;;;;;14.43;94.85;96985.97;5048945;28;20070;-75
2021/05/02 06:57:59;;;;;;;0.95;0.50;;;;;;;14.50;97.18;96977.13;5048505;28;20110;-74
2021/05/02 07:00:24;;;;;;;1.60;0.70;;;;;;;14.49;94.85;96968.06;5049511;28;20048;-81
2021/05/02 07:02:50;;;;;;;1.65;0.68;;;;;;;14.44;95.41;96985.59;5049834;28;20025;-84
2021/05/02 07:05:15;;;;;;;1.08;0.82;;;;;;;14.67;95.39;96980.44;5050091;28;20021;-83
2021/05/02 07:07:41;;;;;;;1.65;0.63;;;;;;;14.78;96.00;96987.09;5048170;28;20033;-80
2021/05/02 07:10:07;;;;;;;3.22;1.35;;;;;;;15.04;93.86;96981.16;5050314;28;20020;-81
2021/05/02 07:12:32;;;;;;;2.47;0.50;;;;;;;15.41;92.01;96992.91;5064709;28;20017;-74
2021/05/02 07:14:57;;;;;;;2.25;0.73;;;;;;;15.16;91.09;96989.41;5048421;28;20033;-78
2021/05/02 07:17:23;;;;;;;2.08;0.52;;;;;;;15.22;92.65;96995.50;5048481;28;20151;-77
2021/05/02 07:19:49;;;;;;;2.25;0.85;;;;;;;15.31;92.07;97005.22;5046220;28;20017;-78
2021/05/02 07:22:15;;;;;;;4.80;1.13;;;;;;;15.24;92.72;97002.25;5048516;28;20025;-77
2021/05/02 07:24:41;;;;;;;1.35;0.63;;;;;;;15.50;92.35;96999.09;5048551;28;20719;-76
2021/05/02 07:27:06;;;;;;;1.95;0.60;;;;;;;15.48;90.41;96998.63;5048175;28;20021;-76
2021/05/02 07:29:31;;;;;;;3.17;0.90;;;;;;;15.38;91.46;97004.63;5051710;28;20029;-82
2021/05/02 07:31:57;;;;;;;1.60;0.73;;;;;;;15.32;88.13;97011.50;5047470;28;20021;-75
2021/05/02 07:34:25;;;;;;;1.25;0.85;;;;;;;15.43;88.70;97020.91;5042372;28;20416;-75
2021/05/02 07:36:54;;;;;;;0.80;0.70;;;;;;;15.57;87.44;97026.06;5045406;28;20028;-76
2021/05/02 07:39:20;;;;;;;1.35;0.77;;;;;;;15.43;85.95;97023.66;5048068;28;20021;-74
2021/05/02 07:41:46;;;;;;;1.30;1.20;;;;;;;15.51;87.45;97028.25;5049924;28;20492;-76
2021/05/02 07:44:11;;;;;;;1.30;0.88;;;;;;;15.43;89.26;97031.94;5051814;28;20063;-74
2021/05/02 07:46:36;;;;;;;3.33;0.90;;;;;;;15.52;87.84;97033.44;5051601;28;20021;-75
2021/05/02 07:49:02;;;;;;;1.27;0.70;;;;;;;15.49;88.43;97052.63;5051767;28;20063;-75
2021/05/02 07:51:27;;;;;;;4.07;0.98;;;;;;;15.47;88.12;97052.94;5051629;28;20412;-74
2021/05/02 07:53:53;;;;;;;4.75;0.88;;;;;;;15.54;87.72;97047.66;5051501;28;20025;-76
2021/05/02 07:56:18;;;;;;;0.88;0.80;;;;;;;15.58;86.00;97052.47;5052163;28;20074;-75
2021/05/02 07:58:44;;;;;;;1.75;0.80;;;;;;;15.51;85.63;97033.75;5050121;28;20057;-75
2021/05/02 08:01:09;;;;;;;5.05;1.13;;;;;;;15.61;84.82;97047.06;5051569;28;20025;-75
2021/05/02 08:03:34;;;;;;;2.08;0.57;;;;;;;15.85;82.97;97046.94;5058583;28;20025;-75
2021/05/02 08:06:00;;;;;;;2.78;0.60;;;;;;;15.84;82.78;97045.38;5052353;28;20108;-74
2021/05/02 08:08:25;;;;;;;3.00;0.80;;;;;;;15.91;82.36;97045.53;5055205;28;20021;-71
2021/05/02 08:10:51;;;;;;;2.63;0.60;;;;;;;16.13;82.02;97051.66;5052464;28;20465;-72
2021/05/02 08:13:18;;;;;;;0.80;0.60;;;;;;;16.37;80.96;97073.59;5050790;28;20048;-73
2021/05/02 08:15:45;;;;;;;0.57;0.45;;;;;;;16.13;80.17;97059.94;5048832;28;20078;-79
2021/05/02 08:18:10;;;;;;;3.22;0.60;;;;;;;16.08;82.36;97069.25;5050842;28;20020;-84
2021/05/02 08:20:36;;;;;;;1.98;0.52;;;;;;;15.88;81.97;97071.06;5052108;28;20524;-82
2021/05/02 08:23:01;;;;;;;3.95;1.40;;;;;;;15.92;83.62;97069.22;5049423;28;20021;-84
2021/05/02 08:25:27;;;;;;;1.40;0.80;;;;;;;15.98;83.36;97089.06;5051325;28;20070;-83
2021/05/02 08:27:52;;;;;;;3.58;1.08;;;;;;;15.94;83.52;97082.69;5051029;28;20421;-81
2021/05/02 08:30:18;;;;;;;0.55;0.52;;;;;;;15.75;83.15;97080.56;5066007;28;20043;-83
2021/05/02 08:32:43;;;;;;;0.73;0.57;;;;;;;15.63;81.79;97088.84;5050087;28;20032;-82
2021/05/02 08:35:10;;;;;;;5.97;1.02;;;;;;;15.62;82.00;97100.25;5052760;28;20029;-82
2021/05/02 08:37:36;;;;;;;1.33;0.60;;;;;;;15.57;83.67;97090.25;5050276;28;20021;-83
2021/05/02 08:40:02;;;;;;;0.70;0.60;;;;;;;15.48;81.63;97104.19;5051924;28;20032;-85
2021/05/02 08:42:27;;;;;;;0.50;0.50;;;;;;;15.44;82.00;97096.94;5053124;28;20025;-84
2021/05/02 08:44:53;;;;;;;2.58;1.10;;;;;;;15.58;82.13;97116.69;5052969;28;20527;-83
2021/05/02 08:47:18;;;;;;;0.80;0.60;;;;;;;15.56;82.24;97109.91;5043363;28;20032;-85
2021/05/02 08:49:47;;;;;;;1.02;0.80;;;;;;;15.57;82.23;97114.28;5057390;28;20376;-85
2021/05/02 08:52:13;;;;;;;1.25;1.15;;;;;;;15.53;81.18;97123.25;5051781;28;20099;-81
2021/05/02 08:54:38;;;;;;;2.78;1.73;;;;;;;15.46;80.09;97134.03;5068407;28;20041;-84
2021/05/02 08:57:07;;;;;;;1.77;0.60;;;;;;;15.54;77.62;97126.78;5053518;28;20021;-85
2021/05/02 08:59:32;;;;;;;6.88;0.60;;;;;;;15.54;79.41;97124.84;5068499;28;20033;-79
2021/05/02 09:01:59;;;;;;;2.08;1.02;;;;;;;15.84;79.40;97144.66;5052496;28;20512;-84
2021/05/02 09:04:25;;;;;;;1.58;0.85;;;;;;;15.87;77.20;97138.44;5066934;28;20089;-82
2021/05/02 09:06:50;;;;;;;2.83;0.90;;;;;;;15.91;77.19;97147.59;5052439;28;20035;-86
2021/05/02 09:09:16;;;;;;;0.70;0.70;;;;;;;15.65;77.11;97141.72;5054201;28;20029;-85
2021/05/02 09:11:47;;;;;;;2.38;0.80;;;;;;;15.78;75.13;97142.50;5062575;28;20142;-84
2021/05/02 09:14:23;;;;;;;4.38;0.65;;;;;;;15.74;73.98;97158.13;5058241;28;20431;-81
2021/05/02 09:16:55;;;;;;;1.23;0.50;;;;;;;15.57;74.08;97150.91;5054870;28;20060;-86
2021/05/02 09:19:26;;;;;;;4.03;0.93;;;;;;;15.58;73.93;97149.75;5072381;28;20074;-86
2021/05/02 09:21:53;;;;;;;1.85;0.80;;;;;;;15.59;73.11;97154.13;5054362;28;20032;-84
2021/05/02 09:24:24;;;;;;;5.47;0.60;;;;;;;15.65;73.62;97165.72;5055603;28;20392;-82
2021/05/02 09:27:14;;;;;;;5.75;1.15;;;;;;;15.67;72.90;97158.69;5072525;28;20029;-85
2021/05/02 09:29:41;;;;;;;3.22;0.80;;;;;;;15.73;71.94;97160.06;5042036;28;20030;-86
2021/05/02 09:32:08;;;;;;;2.28;0.80;;;;;;;16.00;71.53;97169.53;5036545;28;20442;-87
2021/05/02 09:34:35;;;;;;;3.83;1.17;;;;;;;16.15;71.83;97166.03;5036429;28;20065;-81
2021/05/02 09:37:06;;;;;;;3.50;0.65;;;;;;;16.14;70.38;97174.66;5032782;28;20651;-82
2021/05/02 09:39:38;;;;;;;3.45;0.90;;;;;;;16.25;70.71;97173.03;5042559;28;20037;-82
2021/05/02 09:42:14;;;;;;;2.17;0.80;;;;;;;16.35;71.06;97172.53;5047396;28;20025;-79
2021/05/02 09:44:45;;;;;;;8.00;1.10;;;;;;;16.36;68.61;97165.81;5049432;28;20470;-81
2021/05/02 09:47:22;;;;;;;0.98;0.40;;;;;;;15.99;69.36;97174.25;5041298;28;20056;-79
2021/05/02 09:50:09;;;;;;;2.05;0.70;;;;;;;16.24;68.72;97174.97;5049488;28;20086;-84
2021/05/02 09:52:40;;;;;;;3.72;0.93;;;;;;;16.44;68.08;97176.75;5051110;28;20032;-84
2021/05/02 09:55:35;;;;;;;8.68;1.10;;;;;;;16.60;66.89;97174.81;5046933;28;20535;-76
2021/05/02 09:58:08;;;;;;;1.48;0.80;;;;;;;16.38;67.29;97188.38;5050355;28;20588;-77
2021/05/02 10:00:45;;;;;;;2.30;1.05;;;;;;;16.18;67.66;97186.59;5049701;28;20070;-82
2021/05/02 10:03:13;;;;;;;3.00;0.80;;;;;;;16.13;67.96;97184.09;5046229;28;20413;-76
2021/05/02 10:06:03;;;;;;;3.10;1.00;;;;;;;16.26;67.16;97182.88;5049444;28;20018;-77
2021/05/02 10:08:29;;;;;;;1.67;0.80;;;;;;;16.67;67.23;97182.50;5046906;28;20039;-75
2021/05/02 10:10:56;;;;;;;1.63;0.65;;;;;;;17.11;65.72;97197.06;5047626;28;20481;-76
2021/05/02 10:13:23;;;;;;;3.67;1.65;;;;;;;16.97;66.23;97164.38;5046386;28;20024;-76
2021/05/02 10:15:51;;;;;;;6.03;0.80;;;;;;;16.95;64.55;97182.44;5063718;28;20432;-81
2021/05/02 10:18:28;;;;;;;0.68;0.47;;;;;;;16.93;64.45;97184.75;5047996;28;20033;-81
2021/05/02 10:21:01;;;;;;;0.95;0.40;;;;;;;16.88;63.47;97201.63;5065503;28;20037;-79
2021/05/02 10:23:31;;;;;;;3.55;0.60;;;;;;;16.88;63.38;97204.38;5064961;28;20104;-82
2021/05/02 10:26:10;;;;;;;2.50;0.57;;;;;;;17.29;62.52;97195.53;5049521;28;20021;-79
2021/05/02 10:28:36;;;;;;;1.85;0.88;;;;;;;17.29;61.83;97198.31;5063195;28;20032;-75
2021/05/02 10:31:42;;;;;;;2.47;0.63;;;;;;;17.93;60.22;97203.44;5048497;28;20401;-85
2021/05/02 10:34:30;;;;;;;1.35;0.50;;;;;;;18.58;58.12;97200.84;5047620;28;20087;-80
2021/05/02 10:37:24;;;;;;;1.48;0.70;;;;;;;18.49;58.31;97214.94;5047386;28;20025;-77
2021/05/02 10:40:08;;;;;;;2.28;1.05;;;;;;;17.92;58.99;97214.84;5045522;28;20781;-74
2021/05/02 10:42:37;;;;;;;3.13;1.00;;;;;;;17.51;60.16;97221.78;5027282;28;20398;-76
2021/05/02 10:45:28;;;;;;;1.45;0.77;;;;;;;17.33;61.92;97220.53;5028316;28;20565;-75
2021/05/02 10:47:57;;;;;;;2.70;0.80;;;;;;;17.44;62.76;97224.38;5028331;28;20075;-77
2021/05/02 10:50:35;;;;;;;1.00;0.40;;;;;;;17.59;62.04;97212.50;5043265;28;20033;-76
2021/05/02 10:53:09;;;;;;;4.47;0.80;;;;;;;17.82;60.76;97215.41;5028663;28;20022;-76
2021/05/02 10:55:51;;;;;;;1.63;0.50;;;;;;;17.66;60.46;97229.28;5033978;28;20039;-75
2021/05/02 10:58:18;;;;;;;3.97;0.93;;;;;;;17.60;60.69;97208.59;5042529;28;20037;-75
2021/05/02 11:00:52;;;;;;;1.98;1.00;;;;;;;17.70;60.67;97241.22;5046630;28;20495;-76
2021/05/02 11:03:39;;;;;;;2.88;0.65;;;;;;;17.40;60.75;97235.34;5046216;28;20485;-76
2021/05/02 11:06:11;;;;;;;;;;;;;;;17.18;61.66;97240.66;5047759;28;20040;-74
2021/05/02 11:09:01;;;;;;;0.90;0.50;;;;;;;17.81;58.61;97235.94;5046514;28;20284;-74
2021/05/02 11:11:37;;;;;;;0.85;0.50;;;;;;;17.79;58.38;97233.56;5047770;28;20483;-75
2021/05/02 11:16:39;;;;;;;3.58;1.25;;;;;;;17.86;58.90;97233.69;5049950;28;20032;-75
2021/05/02 11:19:06;;;;;;;4.90;0.82;;;;;;;17.27;61.16;97239.34;5050650;28;20040;-75
2021/05/02 11:21:55;;;;;;;3.28;0.60;;;;;;;17.70;62.34;97246.75;5051363;28;20131;-75
2021/05/02 11:24:21;;;;;;;4.95;3.20;;;;;;;18.02;61.17;97248.31;5066934;28;20029;-83
2021/05/02 11:27:06;;;;;;;1.08;0.45;;;;;;;18.11;61.30;97245.31;5051370;28;20043;-77
2021/05/02 11:29:47;;;;;;;0.98;0.20;;;;;;;18.13;59.98;97246.59;5050418;28;20021;-82
2021/05/02 11:32:13;;;;;;;5.18;0.63;;;;;;;18.31;59.14;97255.28;5050042;28;20473;-80
2021/05/02 11:34:52;;;;;;;1.65;0.77;;;;;;;18.63;57.73;97267.06;5051270;28;20029;-79
2021/05/02 11:37:39;;;;;;;1.17;0.57;;;;;;;18.37;58.63;97258.56;5051454;28;20028;-80
2021/05/02 11:40:23;;;;;;;2.00;0.82;;;;;;;18.34;59.00;97264.81;5047724;28;20579;-79